sensor_id;sensor_type;location;lat;lon;timestamp;pressure;altitude;pressure_sealevel;temperature;humidity
11124;BME280;5616;42.692;23.312;2023-04-26T00:00:53;94198.84;;;10.95;94.83
11124;BME280;5616;42.692;23.312;2023-04-26T00:03:19;94198.84;;;10.88;94.74
11124;BME280;5616;42.692;23.312;2023-04-26T00:05:49;94195.47;;;10.88;94.71
11124;BME280;5616;42.692;23.312;2023-04-26T00:08:15;94188.91;;;10.92;93.88
11124;BME280;5616;42.692;23.312;2023-04-26T00:10:42;94191.28;;;10.93;92.73
11124;BME280;5616;42.692;23.312;2023-04-26T00:13:09;94192.13;;;10.87;92.96
11124;BME280;5616;42.692;23.312;2023-04-26T00:15:36;94180.59;;;10.83;92.77
11124;BME280;5616;42.692;23.312;2023-04-26T00:18:03;94171.25;;;10.89;93.52
11124;BME280;5616;42.692;23.312;2023-04-26T00:20:29;94168.88;;;10.87;93.38
11124;BME280;5616;42.692;23.312;2023-04-26T00:22:57;94164.47;;;10.88;92.76
11124;BME280;5616;42.692;23.312;2023-04-26T00:25:24;94172.03;;;10.89;93.46
11124;BME280;5616;42.692;23.312;2023-04-26T00:27:51;94175.66;;;10.75;94.36
11124;BME280;5616;42.692;23.312;2023-04-26T00:30:18;94167.09;;;10.75;94.71
11124;BME280;5616;42.692;23.312;2023-04-26T00:32:45;94167.72;;;10.77;95.51
11124;BME280;5616;42.692;23.312;2023-04-26T00:35:12;94157.41;;;10.70;95.29
11124;BME280;5616;42.692;23.312;2023-04-26T00:37:39;94162.78;;;10.62;95.44
11124;BME280;5616;42.692;23.312;2023-04-26T00:40:08;94163.38;;;10.64;96.00
11124;BME280;5616;42.692;23.312;2023-04-26T00:42:36;94166.19;;;10.50;96.37
11124;BME280;5616;42.692;23.312;2023-04-26T00:45:06;94163.47;;;10.31;96.80
11124;BME280;5616;42.692;23.312;2023-04-26T00:47:33;94165.06;;;10.32;97.52
11124;BME280;5616;42.692;23.312;2023-04-26T00:50:01;94158.28;;;10.25;97.76
11124;BME280;5616;42.692;23.312;2023-04-26T00:52:28;94163.88;;;10.15;98.21
11124;BME280;5616;42.692;23.312;2023-04-26T00:54:56;94166.66;;;10.20;98.29
11124;BME280;5616;42.692;23.312;2023-04-26T00:57:24;94170.03;;;10.21;98.92
11124;BME280;5616;42.692;23.312;2023-04-26T00:59:52;94160.47;;;10.28;98.93
11124;BME280;5616;42.692;23.312;2023-04-26T01:02:18;94166.22;;;10.30;98.67
11124;BME280;5616;42.692;23.312;2023-04-26T01:04:47;94164.84;;;10.34;98.58
11124;BME280;5616;42.692;23.312;2023-04-26T01:07:15;94164.22;;;10.38;98.98
11124;BME280;5616;42.692;23.312;2023-04-26T01:09:43;94171.19;;;10.38;98.75
11124;BME280;5616;42.692;23.312;2023-04-26T01:12:11;94175.38;;;10.19;99.10
11124;BME280;5616;42.692;23.312;2023-04-26T01:14:40;94178.34;;;10.29;99.20
11124;BME280;5616;42.692;23.312;2023-04-26T01:17:07;94176.16;;;10.33;99.96
11124;BME280;5616;42.692;23.312;2023-04-26T01:19:33;94174.78;;;10.37;100.00
11124;BME280;5616;42.692;23.312;2023-04-26T01:22:02;94173.34;;;10.41;100.00
11124;BME280;5616;42.692;23.312;2023-04-26T01:24:31;94159.88;;;10.46;100.00
11124;BME280;5616;42.692;23.312;2023-04-26T01:27:02;94147.56;;;10.41;100.00
11124;BME280;5616;42.692;23.312;2023-04-26T01:29:30;94145.94;;;10.47;100.00
11124;BME280;5616;42.692;23.312;2023-04-26T01:31:57;94150.00;;;10.16;100.00
11124;BME280;5616;42.692;23.312;2023-04-26T01:34:27;94159.91;;;9.87;100.00
11124;BME280;5616;42.692;23.312;2023-04-26T01:36:53;94159.50;;;9.90;100.00
11124;BME280;5616;42.692;23.312;2023-04-26T01:39:21;94165.03;;;10.06;100.00
11124;BME280;5616;42.692;23.312;2023-04-26T01:41:50;94160.28;;;10.03;100.00
11124;BME280;5616;42.692;23.312;2023-04-26T01:44:17;94159.28;;;10.04;100.00
11124;BME280;5616;42.692;23.312;2023-04-26T01:46:44;94171.81;;;10.01;100.00
11124;BME280;5616;42.692;23.312;2023-04-26T01:49:11;94175.56;;;9.92;100.00
11124;BME280;5616;42.692;23.312;2023-04-26T01:51:38;94171.81;;;10.01;100.00
11124;BME280;5616;42.692;23.312;2023-04-26T01:54:06;94166.03;;;10.05;100.00
11124;BME280;5616;42.692;23.312;2023-04-26T01:56:32;94161.06;;;10.04;100.00
11124;BME280;5616;42.692;23.312;2023-04-26T01:59:01;94158.50;;;10.17;100.00
11124;BME280;5616;42.692;23.312;2023-04-26T02:01:29;94161.50;;;10.27;100.00
11124;BME280;5616;42.692;23.312;2023-04-26T02:03:56;94159.09;;;10.32;99.52
11124;BME280;5616;42.692;23.312;2023-04-26T02:06:23;94147.59;;;10.34;97.81
11124;BME280;5616;42.692;23.312;2023-04-26T02:08:51;94140.81;;;10.40;96.79
11124;BME280;5616;42.692;23.312;2023-04-26T02:11:18;94150.38;;;10.26;96.43
11124;BME280;5616;42.692;23.312;2023-04-26T02:13:45;94157.09;;;10.34;95.19
11124;BME280;5616;42.692;23.312;2023-04-26T02:16:13;94147.94;;;10.38;95.93
11124;BME280;5616;42.692;23.312;2023-04-26T02:18:41;94152.38;;;9.98;96.47
11124;BME280;5616;42.692;23.312;2023-04-26T02:21:09;94150.59;;;9.79;97.18
11124;BME280;5616;42.692;23.312;2023-04-26T02:23:36;94137.47;;;9.94;96.92
11124;BME280;5616;42.692;23.312;2023-04-26T02:26:03;94138.28;;;10.01;96.66
11124;BME280;5616;42.692;23.312;2023-04-26T02:28:30;94138.47;;;10.06;96.84
11124;BME280;5616;42.692;23.312;2023-04-26T02:30:57;94145.41;;;9.92;97.40
11124;BME280;5616;42.692;23.312;2023-04-26T02:33:25;94140.84;;;9.94;97.40
11124;BME280;5616;42.692;23.312;2023-04-26T02:35:52;94142.84;;;9.79;98.31
11124;BME280;5616;42.692;23.312;2023-04-26T02:38:19;94143.81;;;9.91;98.63
11124;BME280;5616;42.692;23.312;2023-04-26T02:40:46;94154.16;;;9.84;99.32
11124;BME280;5616;42.692;23.312;2023-04-26T02:43:14;94147.97;;;9.99;98.52
11124;BME280;5616;42.692;23.312;2023-04-26T02:45:42;94148.97;;;10.11;97.82
11124;BME280;5616;42.692;23.312;2023-04-26T02:48:11;94152.38;;;10.18;97.13
11124;BME280;5616;42.692;23.312;2023-04-26T02:50:39;94141.66;;;10.21;95.38
11124;BME280;5616;42.692;23.312;2023-04-26T02:53:06;94144.19;;;10.27;94.71
11124;BME280;5616;42.692;23.312;2023-04-26T02:55:33;94137.66;;;10.25;93.53
11124;BME280;5616;42.692;23.312;2023-04-26T02:58:00;94128.56;;;10.16;93.99
11124;BME280;5616;42.692;23.312;2023-04-26T03:00:27;94130.13;;;10.23;93.41
11124;BME280;5616;42.692;23.312;2023-04-26T03:02:54;94129.53;;;10.02;94.85
11124;BME280;5616;42.692;23.312;2023-04-26T03:05:22;94134.91;;;9.87;95.65
11124;BME280;5616;42.692;23.312;2023-04-26T03:07:51;94137.28;;;9.89;95.19
11124;BME280;5616;42.692;23.312;2023-04-26T03:10:18;94135.09;;;9.72;94.79
11124;BME280;5616;42.692;23.312;2023-04-26T03:12:45;94135.50;;;9.63;96.13
11124;BME280;5616;42.692;23.312;2023-04-26T03:15:11;94140.88;;;9.74;96.07
11124;BME280;5616;42.692;23.312;2023-04-26T03:17:40;94134.13;;;9.60;96.89
11124;BME280;5616;42.692;23.312;2023-04-26T03:20:08;94124.97;;;9.38;97.26
11124;BME280;5616;42.692;23.312;2023-04-26T03:22:36;94134.31;;;9.65;96.22
11124;BME280;5616;42.692;23.312;2023-04-26T03:25:06;94131.31;;;9.75;95.54
11124;BME280;5616;42.692;23.312;2023-04-26T03:27:33;94124.97;;;9.64;96.25
11124;BME280;5616;42.692;23.312;2023-04-26T03:30:00;94128.56;;;9.76;97.56
11124;BME280;5616;42.692;23.312;2023-04-26T03:32:29;94129.34;;;9.70;97.72
11124;BME280;5616;42.692;23.312;2023-04-26T03:34:56;94132.34;;;9.74;97.61
11124;BME280;5616;42.692;23.312;2023-04-26T03:37:23;94126.38;;;9.73;97.90
11124;BME280;5616;42.692;23.312;2023-04-26T03:39:57;94130.56;;;9.74;97.20
11124;BME280;5616;42.692;23.312;2023-04-26T03:42:25;94138.09;;;9.76;97.30
11124;BME280;5616;42.692;23.312;2023-04-26T03:44:52;94141.25;;;9.84;96.87
11124;BME280;5616;42.692;23.312;2023-04-26T03:47:21;94153.94;;;9.86;96.50
11124;BME280;5616;42.692;23.312;2023-04-26T03:49:48;94153.13;;;9.99;95.62
11124;BME280;5616;42.692;23.312;2023-04-26T03:52:15;94147.19;;;10.11;94.98
11124;BME280;5616;42.692;23.312;2023-04-26T03:54:42;94145.78;;;9.96;94.89
11124;BME280;5616;42.692;23.312;2023-04-26T03:57:08;94155.69;;;10.12;94.95
11124;BME280;5616;42.692;23.312;2023-04-26T03:59:37;94156.34;;;10.27;93.21
11124;BME280;5616;42.692;23.312;2023-04-26T04:02:03;94152.94;;;10.39;93.35
11124;BME280;5616;42.692;23.312;2023-04-26T04:04:30;94150.94;;;10.48;92.93
11124;BME280;5616;42.692;23.312;2023-04-26T04:06:57;94155.28;;;10.48;92.81
11124;BME280;5616;42.692;23.312;2023-04-26T04:09:24;94160.41;;;10.54;92.74
11124;BME280;5616;42.692;23.312;2023-04-26T04:11:52;94161.59;;;10.65;91.64
11124;BME280;5616;42.692;23.312;2023-04-26T04:14:19;94167.50;;;10.78;91.38
11124;BME280;5616;42.692;23.312;2023-04-26T04:16:47;94167.47;;;10.91;90.02
11124;BME280;5616;42.692;23.312;2023-04-26T04:19:14;94172.22;;;10.94;89.36
11124;BME280;5616;42.692;23.312;2023-04-26T04:21:41;94169.81;;;10.99;89.54
11124;BME280;5616;42.692;23.312;2023-04-26T04:24:10;94173.94;;;11.07;89.39
11124;BME280;5616;42.692;23.312;2023-04-26T04:26:37;94177.09;;;11.16;89.72
11124;BME280;5616;42.692;23.312;2023-04-26T04:29:04;94168.75;;;11.14;90.07
11124;BME280;5616;42.692;23.312;2023-04-26T04:31:35;94172.38;;;11.06;89.96
11124;BME280;5616;42.692;23.312;2023-04-26T04:34:03;94174.28;;;11.24;89.54
11124;BME280;5616;42.692;23.312;2023-04-26T04:36:30;94178.66;;;11.23;89.95
11124;BME280;5616;42.692;23.312;2023-04-26T04:38:58;94175.59;;;11.39;89.48
11124;BME280;5616;42.692;23.312;2023-04-26T04:41:25;94176.38;;;11.40;89.30
11124;BME280;5616;42.692;23.312;2023-04-26T04:43:53;94189.25;;;11.46;87.36
11124;BME280;5616;42.692;23.312;2023-04-26T04:46:20;94189.41;;;11.58;87.38
11124;BME280;5616;42.692;23.312;2023-04-26T04:48:47;94194.31;;;11.66;86.59
11124;BME280;5616;42.692;23.312;2023-04-26T04:51:15;94189.91;;;11.73;85.95
11124;BME280;5616;42.692;23.312;2023-04-26T04:53:42;94189.94;;;11.66;87.82
11124;BME280;5616;42.692;23.312;2023-04-26T04:56:09;94181.38;;;11.66;88.33
11124;BME280;5616;42.692;23.312;2023-04-26T04:58:36;94183.69;;;11.81;86.47
11124;BME280;5616;42.692;23.312;2023-04-26T05:01:03;94181.88;;;11.88;84.55
11124;BME280;5616;42.692;23.312;2023-04-26T05:03:43;94185.78;;;11.97;85.78
11124;BME280;5616;42.692;23.312;2023-04-26T05:06:09;94184.81;;;11.91;84.42
11124;BME280;5616;42.692;23.312;2023-04-26T05:08:38;94186.66;;;11.84;85.50
11124;BME280;5616;42.692;23.312;2023-04-26T05:11:07;94181.38;;;11.97;85.12
11124;BME280;5616;42.692;23.312;2023-04-26T05:13:34;94184.28;;;12.07;83.67
11124;BME280;5616;42.692;23.312;2023-04-26T05:16:00;94162.09;;;11.93;84.25
11124;BME280;5616;42.692;23.312;2023-04-26T05:18:28;94188.25;;;12.10;85.09
11124;BME280;5616;42.692;23.312;2023-04-26T05:20:56;94187.59;;;12.14;85.16
11124;BME280;5616;42.692;23.312;2023-04-26T05:23:24;94181.00;;;11.94;84.75
11124;BME280;5616;42.692;23.312;2023-04-26T05:25:52;94183.03;;;12.16;85.04
11124;BME280;5616;42.692;23.312;2023-04-26T05:28:37;94185.50;;;12.05;84.90
11124;BME280;5616;42.692;23.312;2023-04-26T05:31:36;94201.56;;;12.13;84.42
11124;BME280;5616;42.692;23.312;2023-04-26T05:34:11;94185.38;;;12.43;83.63
11124;BME280;5616;42.692;23.312;2023-04-26T05:36:39;94192.31;;;12.67;82.48
11124;BME280;5616;42.692;23.312;2023-04-26T05:39:06;94200.53;;;12.82;81.64
11124;BME280;5616;42.692;23.312;2023-04-26T05:41:34;94199.66;;;13.06;79.67
11124;BME280;5616;42.692;23.312;2023-04-26T05:44:02;94198.63;;;13.14;78.30
11124;BME280;5616;42.692;23.312;2023-04-26T05:46:28;94194.44;;;13.13;78.83
11124;BME280;5616;42.692;23.312;2023-04-26T05:48:55;94200.31;;;13.02;81.24
11124;BME280;5616;42.692;23.312;2023-04-26T05:51:22;94209.31;;;13.17;77.92
11124;BME280;5616;42.692;23.312;2023-04-26T05:53:49;94214.28;;;13.37;78.31
11124;BME280;5616;42.692;23.312;2023-04-26T05:56:16;94211.50;;;13.50;76.15
11124;BME280;5616;42.692;23.312;2023-04-26T05:58:44;94204.47;;;13.69;75.67
11124;BME280;5616;42.692;23.312;2023-04-26T06:01:12;94214.13;;;13.80;75.98
11124;BME280;5616;42.692;23.312;2023-04-26T06:03:39;94213.00;;;13.99;75.90
11124;BME280;5616;42.692;23.312;2023-04-26T06:06:06;94217.44;;;14.10;75.54
11124;BME280;5616;42.692;23.312;2023-04-26T06:08:33;94213.50;;;14.07;75.75
11124;BME280;5616;42.692;23.312;2023-04-26T06:11:00;94217.75;;;14.02;75.29
11124;BME280;5616;42.692;23.312;2023-04-26T06:13:27;94213.44;;;13.96;75.69
11124;BME280;5616;42.692;23.312;2023-04-26T06:15:56;94211.13;;;14.18;76.37
11124;BME280;5616;42.692;23.312;2023-04-26T06:18:23;94212.09;;;14.35;76.04
11124;BME280;5616;42.692;23.312;2023-04-26T06:20:50;94219.88;;;14.46;74.44
11124;BME280;5616;42.692;23.312;2023-04-26T06:23:17;94219.00;;;14.64;75.08
11124;BME280;5616;42.692;23.312;2023-04-26T06:25:44;94213.34;;;14.79;72.66
11124;BME280;5616;42.692;23.312;2023-04-26T06:28:11;94213.09;;;14.92;72.49
11124;BME280;5616;42.692;23.312;2023-04-26T06:30:38;94209.88;;;15.24;71.83
11124;BME280;5616;42.692;23.312;2023-04-26T06:33:07;94211.38;;;15.60;71.35
11124;BME280;5616;42.692;23.312;2023-04-26T06:35:38;94210.47;;;15.55;68.75
11124;BME280;5616;42.692;23.312;2023-04-26T06:38:05;94207.94;;;15.71;68.18
11124;BME280;5616;42.692;23.312;2023-04-26T06:40:34;94208.94;;;15.70;65.14
11124;BME280;5616;42.692;23.312;2023-04-26T06:43:02;94214.53;;;15.62;67.62
11124;BME280;5616;42.692;23.312;2023-04-26T06:45:44;94213.97;;;15.60;63.18
11124;BME280;5616;42.692;23.312;2023-04-26T06:48:12;94213.13;;;15.71;59.84
11124;BME280;5616;42.692;23.312;2023-04-26T06:50:39;94218.84;;;15.17;62.53
11124;BME280;5616;42.692;23.312;2023-04-26T06:53:06;94217.00;;;15.17;63.21
11124;BME280;5616;42.692;23.312;2023-04-26T06:55:33;94213.41;;;15.18;64.85
11124;BME280;5616;42.692;23.312;2023-04-26T06:58:00;94215.28;;;15.91;64.27
11124;BME280;5616;42.692;23.312;2023-04-26T07:00:27;94217.31;;;16.34;63.11
11124;BME280;5616;42.692;23.312;2023-04-26T07:02:54;94215.75;;;16.33;61.26
11124;BME280;5616;42.692;23.312;2023-04-26T07:05:23;94212.56;;;16.31;63.29
11124;BME280;5616;42.692;23.312;2023-04-26T07:07:49;94222.41;;;16.57;60.75
11124;BME280;5616;42.692;23.312;2023-04-26T07:10:16;94217.66;;;17.09;65.18
11124;BME280;5616;42.692;23.312;2023-04-26T07:12:43;94212.28;;;17.59;57.88
11124;BME280;5616;42.692;23.312;2023-04-26T07:15:10;94216.50;;;17.65;63.55
11124;BME280;5616;42.692;23.312;2023-04-26T07:17:37;94220.31;;;17.36;61.36
11124;BME280;5616;42.692;23.312;2023-04-26T07:20:05;94227.66;;;16.95;60.77
11124;BME280;5616;42.692;23.312;2023-04-26T07:22:33;94224.03;;;17.18;60.72
11124;BME280;5616;42.692;23.312;2023-04-26T07:25:00;94218.66;;;17.25;57.98
11124;BME280;5616;42.692;23.312;2023-04-26T07:27:26;94221.66;;;17.17;59.71
11124;BME280;5616;42.692;23.312;2023-04-26T07:29:53;94215.38;;;17.56;56.30
11124;BME280;5616;42.692;23.312;2023-04-26T07:32:21;94222.19;;;18.10;53.19
11124;BME280;5616;42.692;23.312;2023-04-26T07:34:47;94216.56;;;18.50;51.38
11124;BME280;5616;42.692;23.312;2023-04-26T07:37:14;94229.56;;;18.45;50.14
11124;BME280;5616;42.692;23.312;2023-04-26T07:39:42;94229.72;;;18.33;50.33
11124;BME280;5616;42.692;23.312;2023-04-26T07:42:09;94234.16;;;18.01;51.13
11124;BME280;5616;42.692;23.312;2023-04-26T07:44:36;94239.66;;;16.46;54.94
11124;BME280;5616;42.692;23.312;2023-04-26T07:47:03;94233.91;;;16.44;55.22
11124;BME280;5616;42.692;23.312;2023-04-26T07:49:29;94238.03;;;16.40;55.15
11124;BME280;5616;42.692;23.312;2023-04-26T07:51:56;94241.63;;;16.23;55.15
11124;BME280;5616;42.692;23.312;2023-04-26T07:54:26;94240.75;;;16.17;56.58
11124;BME280;5616;42.692;23.312;2023-04-26T07:56:54;94244.59;;;15.98;54.95
11124;BME280;5616;42.692;23.312;2023-04-26T07:59:21;94247.41;;;16.25;55.56
11124;BME280;5616;42.692;23.312;2023-04-26T08:01:48;94247.72;;;16.45;54.15
11124;BME280;5616;42.692;23.312;2023-04-26T08:04:16;94246.78;;;17.23;52.17
11124;BME280;5616;42.692;23.312;2023-04-26T08:06:43;94244.13;;;17.39;52.19
11124;BME280;5616;42.692;23.312;2023-04-26T08:09:10;94249.53;;;17.54;50.95
11124;BME280;5616;42.692;23.312;2023-04-26T08:11:37;94243.22;;;17.50;50.34
11124;BME280;5616;42.692;23.312;2023-04-26T08:14:05;94243.53;;;17.76;51.82
11124;BME280;5616;42.692;23.312;2023-04-26T08:16:32;94243.00;;;18.00;52.23
11124;BME280;5616;42.692;23.312;2023-04-26T08:18:59;94235.06;;;18.17;51.00
11124;BME280;5616;42.692;23.312;2023-04-26T08:21:27;94243.00;;;18.54;49.60
11124;BME280;5616;42.692;23.312;2023-04-26T08:23:55;94235.44;;;19.41;47.61
11124;BME280;5616;42.692;23.312;2023-04-26T08:26:22;94233.69;;;19.57;48.26
11124;BME280;5616;42.692;23.312;2023-04-26T08:28:49;94245.34;;;20.06;46.04
11124;BME280;5616;42.692;23.312;2023-04-26T08:31:17;94238.50;;;20.00;44.90
11124;BME280;5616;42.692;23.312;2023-04-26T08:33:43;94235.63;;;19.96;44.83
11124;BME280;5616;42.692;23.312;2023-04-26T08:36:10;94244.13;;;20.49;43.59
11124;BME280;5616;42.692;23.312;2023-04-26T08:38:37;94231.72;;;21.00;43.24
11124;BME280;5616;42.692;23.312;2023-04-26T08:41:04;94240.94;;;20.92;42.56
11124;BME280;5616;42.692;23.312;2023-04-26T08:43:32;94231.00;;;20.74;41.93
11124;BME280;5616;42.692;23.312;2023-04-26T08:46:04;94235.44;;;20.73;41.97
11124;BME280;5616;42.692;23.312;2023-04-26T08:48:34;94228.88;;;20.76;42.32
11124;BME280;5616;42.692;23.312;2023-04-26T08:51:02;94233.34;;;20.35;42.22
11124;BME280;5616;42.692;23.312;2023-04-26T08:53:33;94240.47;;;19.58;43.56
11124;BME280;5616;42.692;23.312;2023-04-26T08:56:01;94239.72;;;19.62;43.82
11124;BME280;5616;42.692;23.312;2023-04-26T08:58:28;94244.75;;;19.79;43.15
11124;BME280;5616;42.692;23.312;2023-04-26T09:00:55;94239.56;;;19.99;42.21
11124;BME280;5616;42.692;23.312;2023-04-26T09:03:22;94243.75;;;19.95;43.84
11124;BME280;5616;42.692;23.312;2023-04-26T09:05:52;94242.56;;;19.56;43.33
11124;BME280;5616;42.692;23.312;2023-04-26T09:08:19;94238.78;;;19.36;43.51
11124;BME280;5616;42.692;23.312;2023-04-26T09:10:47;94247.28;;;19.07;44.28
11124;BME280;5616;42.692;23.312;2023-04-26T09:13:13;94251.44;;;19.03;44.64
11124;BME280;5616;42.692;23.312;2023-04-26T09:15:40;94244.56;;;18.91;45.31
11124;BME280;5616;42.692;23.312;2023-04-26T09:18:17;94248.31;;;18.37;46.77
11124;BME280;5616;42.692;23.312;2023-04-26T09:20:45;94239.16;;;18.08;47.63
11124;BME280;5616;42.692;23.312;2023-04-26T09:23:27;94246.56;;;16.69;50.94
11124;BME280;5616;42.692;23.312;2023-04-26T09:25:55;94247.47;;;16.96;50.93
11124;BME280;5616;42.692;23.312;2023-04-26T09:28:22;94236.44;;;16.89;52.22
11124;BME280;5616;42.692;23.312;2023-04-26T09:30:50;94253.53;;;17.02;50.79
11124;BME280;5616;42.692;23.312;2023-04-26T09:33:17;94253.78;;;17.17;50.63
11124;BME280;5616;42.692;23.312;2023-04-26T09:35:44;94244.84;;;17.35;48.94
11124;BME280;5616;42.692;23.312;2023-04-26T09:38:11;94249.31;;;17.56;49.11
11124;BME280;5616;42.692;23.312;2023-04-26T09:40:41;94236.91;;;17.68;48.00
11124;BME280;5616;42.692;23.312;2023-04-26T09:43:09;94238.53;;;17.96;47.15
11124;BME280;5616;42.692;23.312;2023-04-26T09:45:45;94239.25;;;18.18;46.25
11124;BME280;5616;42.692;23.312;2023-04-26T09:48:20;94233.22;;;18.17;48.00
11124;BME280;5616;42.692;23.312;2023-04-26T09:50:48;94230.00;;;18.05;49.46
11124;BME280;5616;42.692;23.312;2023-04-26T09:53:29;94242.41;;;17.93;47.47
11124;BME280;5616;42.692;23.312;2023-04-26T09:56:07;94235.84;;;18.17;45.42
11124;BME280;5616;42.692;23.312;2023-04-26T09:58:36;94238.34;;;18.34;45.98
11124;BME280;5616;42.692;23.312;2023-04-26T10:01:03;94233.81;;;18.51;44.22
11124;BME280;5616;42.692;23.312;2023-04-26T10:03:33;94232.84;;;18.62;44.69
11124;BME280;5616;42.692;23.312;2023-04-26T10:06:00;94238.84;;;18.58;42.50
11124;BME280;5616;42.692;23.312;2023-04-26T10:08:27;94230.03;;;18.69;42.98
11124;BME280;5616;42.692;23.312;2023-04-26T10:10:54;94230.66;;;18.49;44.92
11124;BME280;5616;42.692;23.312;2023-04-26T10:13:22;94232.72;;;18.79;43.44
11124;BME280;5616;42.692;23.312;2023-04-26T10:15:51;94222.41;;;19.04;42.66
11124;BME280;5616;42.692;23.312;2023-04-26T10:18:18;94227.44;;;18.74;42.86
11124;BME280;5616;42.692;23.312;2023-04-26T10:20:48;94226.09;;;18.08;44.42
11124;BME280;5616;42.692;23.312;2023-04-26T10:23:20;94233.63;;;18.04;41.60
11124;BME280;5616;42.692;23.312;2023-04-26T10:25:50;94222.16;;;18.05;42.43
11124;BME280;5616;42.692;23.312;2023-04-26T10:28:17;94226.75;;;18.20;41.96
11124;BME280;5616;42.692;23.312;2023-04-26T10:30:55;94222.63;;;18.29;42.74
11124;BME280;5616;42.692;23.312;2023-04-26T10:33:22;94217.81;;;18.16;42.93
11124;BME280;5616;42.692;23.312;2023-04-26T10:36:04;94223.38;;;18.24;42.94
11124;BME280;5616;42.692;23.312;2023-04-26T10:38:31;94225.50;;;18.27;41.58
11124;BME280;5616;42.692;23.312;2023-04-26T10:41:27;94223.50;;;18.40;42.96
11124;BME280;5616;42.692;23.312;2023-04-26T10:43:55;94214.66;;;18.46;42.33
11124;BME280;5616;42.692;23.312;2023-04-26T10:46:36;94208.06;;;18.38;41.31
11124;BME280;5616;42.692;23.312;2023-04-26T10:49:13;94218.25;;;18.66;41.41
11124;BME280;5616;42.692;23.312;2023-04-26T10:52:08;94208.09;;;18.75;40.84
11124;BME280;5616;42.692;23.312;2023-04-26T10:54:50;94215.16;;;18.74;41.54
11124;BME280;5616;42.692;23.312;2023-04-26T10:57:18;94217.63;;;18.22;44.51
11124;BME280;5616;42.692;23.312;2023-04-26T11:02:55;94210.06;;;17.99;42.04
11124;BME280;5616;42.692;23.312;2023-04-26T11:05:41;94208.16;;;17.90;41.73
11124;BME280;5616;42.692;23.312;2023-04-26T11:08:17;94214.13;;;17.85;41.80
11124;BME280;5616;42.692;23.312;2023-04-26T11:10:49;94209.88;;;17.79;40.97
11124;BME280;5616;42.692;23.312;2023-04-26T11:13:17;94214.03;;;17.75;42.12
11124;BME280;5616;42.692;23.312;2023-04-26T11:15:45;94208.78;;;18.02;41.00
11124;BME280;5616;42.692;23.312;2023-04-26T11:18:17;94211.97;;;18.04;41.96
11124;BME280;5616;42.692;23.312;2023-04-26T11:20:44;94209.88;;;17.79;42.78
11124;BME280;5616;42.692;23.312;2023-04-26T11:23:11;94203.78;;;17.95;41.78
11124;BME280;5616;42.692;23.312;2023-04-26T11:25:38;94208.28;;;18.05;39.88
11124;BME280;5616;42.692;23.312;2023-04-26T11:28:05;94211.28;;;18.18;41.31
11124;BME280;5616;42.692;23.312;2023-04-26T11:30:32;94213.41;;;18.21;42.30
11124;BME280;5616;42.692;23.312;2023-04-26T11:32:59;94222.84;;;17.96;40.53
11124;BME280;5616;42.692;23.312;2023-04-26T11:35:28;94208.91;;;17.85;40.61
11124;BME280;5616;42.692;23.312;2023-04-26T11:37:57;94227.28;;;17.95;42.65
11124;BME280;5616;42.692;23.312;2023-04-26T11:40:29;94216.00;;;18.16;39.29
11124;BME280;5616;42.692;23.312;2023-04-26T11:42:59;94212.38;;;17.47;41.83
11124;BME280;5616;42.692;23.312;2023-04-26T11:45:27;94210.13;;;17.78;39.87
11124;BME280;5616;42.692;23.312;2023-04-26T11:47:54;94224.22;;;18.03;42.83
11124;BME280;5616;42.692;23.312;2023-04-26T11:50:22;94214.00;;;18.02;39.27
11124;BME280;5616;42.692;23.312;2023-04-26T11:52:54;94201.97;;;18.27;38.57
11124;BME280;5616;42.692;23.312;2023-04-26T11:55:26;94207.41;;;18.53;37.85
11124;BME280;5616;42.692;23.312;2023-04-26T11:57:53;94207.50;;;18.63;37.80
11124;BME280;5616;42.692;23.312;2023-04-26T12:00:21;94211.47;;;18.70;39.79
11124;BME280;5616;42.692;23.312;2023-04-26T12:02:49;94204.78;;;18.48;38.73
11124;BME280;5616;42.692;23.312;2023-04-26T12:05:23;94204.22;;;18.46;39.73
11124;BME280;5616;42.692;23.312;2023-04-26T12:07:51;94205.13;;;18.61;39.80
11124;BME280;5616;42.692;23.312;2023-04-26T12:10:23;94202.53;;;18.61;40.59
11124;BME280;5616;42.692;23.312;2023-04-26T12:12:50;94201.53;;;18.67;40.75
11124;BME280;5616;42.692;23.312;2023-04-26T12:15:21;94203.44;;;18.82;40.90
11124;BME280;5616;42.692;23.312;2023-04-26T12:17:57;94202.31;;;18.73;38.72
11124;BME280;5616;42.692;23.312;2023-04-26T12:20:31;94210.16;;;18.73;40.69
11124;BME280;5616;42.692;23.312;2023-04-26T12:23:03;94203.75;;;18.22;39.91
11124;BME280;5616;42.692;23.312;2023-04-26T12:25:32;94199.41;;;18.01;39.61
11124;BME280;5616;42.692;23.312;2023-04-26T12:28:00;94198.53;;;18.22;40.15
11124;BME280;5616;42.692;23.312;2023-04-26T12:30:27;94196.09;;;18.15;39.97
11124;BME280;5616;42.692;23.312;2023-04-26T12:33:00;94201.00;;;18.39;39.80
11124;BME280;5616;42.692;23.312;2023-04-26T12:35:27;94203.84;;;18.32;40.70
11124;BME280;5616;42.692;23.312;2023-04-26T12:37:54;94202.13;;;17.62;40.64
11124;BME280;5616;42.692;23.312;2023-04-26T12:40:22;94206.09;;;17.92;39.60
11124;BME280;5616;42.692;23.312;2023-04-26T12:42:50;94181.91;;;18.01;40.30
11124;BME280;5616;42.692;23.312;2023-04-26T12:45:18;94203.78;;;17.95;39.85
11124;BME280;5616;42.692;23.312;2023-04-26T12:47:45;94203.06;;;17.78;41.10
11124;BME280;5616;42.692;23.312;2023-04-26T12:50:12;94196.72;;;17.96;39.86
11124;BME280;5616;42.692;23.312;2023-04-26T12:52:41;94196.97;;;17.94;39.69
11124;BME280;5616;42.692;23.312;2023-04-26T12:55:09;94190.81;;;18.05;39.08
11124;BME280;5616;42.692;23.312;2023-04-26T12:57:37;94190.72;;;17.95;41.74
11124;BME280;5616;42.692;23.312;2023-04-26T13:00:08;94187.75;;;17.60;40.94
11124;BME280;5616;42.692;23.312;2023-04-26T13:02:36;94186.47;;;17.19;40.26
11124;BME280;5616;42.692;23.312;2023-04-26T13:05:03;94203.47;;;17.22;41.30
11124;BME280;5616;42.692;23.312;2023-04-26T13:07:31;94201.81;;;17.16;42.70
11124;BME280;5616;42.692;23.312;2023-04-26T13:09:58;94204.22;;;17.17;44.31